createdAt,value
2019-02-17T00:01:49.365Z,49.05
2019-02-17T00:04:17.917Z,48.17
2019-02-17T00:06:46.509Z,46.50
2019-02-17T00:09:15.348Z,51.58
2019-02-17T00:11:43.945Z,59.38
2019-02-17T00:14:12.501Z,62.13
2019-02-17T00:16:41.059Z,59.63
2019-02-17T00:19:09.658Z,54.67
2019-02-17T00:21:38.217Z,45.48
2019-02-17T00:24:06.779Z,49.40
2019-02-17T00:26:35.368Z,47.13
2019-02-17T00:29:03.947Z,44.15
2019-02-17T00:31:32.541Z,52.88
2019-02-17T00:34:01.095Z,55.15
2019-02-17T00:36:29.674Z,50.43
2019-02-17T00:38:58.268Z,45.92
2019-02-17T00:41:26.828Z,47.27
2019-02-17T00:43:55.381Z,46.23
2019-02-17T00:46:23.970Z,45.45
2019-02-17T00:48:52.526Z,45.30
2019-02-17T00:51:21.110Z,62.93
2019-02-17T00:53:49.704Z,52.55
2019-02-17T00:56:18.253Z,53.02
2019-02-17T00:58:46.810Z,51.37
2019-02-17T01:01:15.406Z,55.43
2019-02-17T01:03:43.958Z,47.10
2019-02-17T01:06:12.572Z,46.77
2019-02-17T01:08:41.111Z,52.45
2019-02-17T01:11:09.668Z,45.55
2019-02-17T01:13:38.256Z,56.25
2019-02-17T01:16:07.169Z,60.35
2019-02-17T01:18:35.760Z,64.53
2019-02-17T01:21:04.316Z,52.43
2019-02-17T01:23:32.873Z,51.65
2019-02-17T01:26:01.463Z,56.10
2019-02-17T01:28:30.055Z,60.73
2019-02-17T01:30:58.639Z,56.53
2019-02-17T01:33:27.237Z,54.75
2019-02-17T01:35:55.796Z,49.63
2019-02-17T01:38:24.354Z,53.30
2019-02-17T01:40:52.950Z,54.10
2019-02-17T01:43:21.518Z,59.88
2019-02-17T01:45:50.076Z,58.30
2019-02-17T01:48:18.762Z,67.25
2019-02-17T01:50:47.322Z,49.95
2019-02-17T01:53:15.942Z,50.12
2019-02-17T01:55:46.945Z,48.63
2019-02-17T01:58:14.809Z,47.98
2019-02-17T02:00:43.398Z,63.45
2019-02-17T02:03:11.959Z,60.23
2019-02-17T02:05:40.513Z,52.98
2019-02-17T02:08:09.110Z,52.55
2019-02-17T02:10:37.668Z,53.65
2019-02-17T02:13:06.998Z,53.85
2019-02-17T02:15:35.970Z,54.55
2019-02-17T02:18:05.375Z,58.95
2019-02-17T02:20:35.068Z,51.77
2019-02-17T02:23:04.802Z,51.90
2019-02-17T02:25:34.920Z,48.90
2019-02-17T02:28:04.601Z,58.13
2019-02-17T02:30:34.358Z,50.83
2019-02-17T02:33:04.023Z,60.67
2019-02-17T02:35:33.741Z,55.78
2019-02-17T02:38:03.174Z,69.72
2019-02-17T02:40:32.950Z,65.05
2019-02-17T02:43:02.483Z,61.88
2019-02-17T02:45:31.079Z,56.23
2019-02-17T02:47:59.646Z,61.00
2019-02-17T02:50:28.672Z,59.38
2019-02-17T02:52:58.511Z,55.78
2019-02-17T02:55:27.450Z,61.05
2019-02-17T02:57:56.792Z,70.45
2019-02-17T03:00:26.440Z,59.25
2019-02-17T03:02:55.768Z,60.25
2019-02-17T03:05:25.410Z,58.00
2019-02-17T03:07:54.680Z,49.65
2019-02-17T03:10:24.411Z,50.40
2019-02-17T03:12:54.094Z,55.83
2019-02-17T03:15:23.795Z,54.98
2019-02-17T03:17:53.228Z,53.20
2019-02-17T03:20:22.588Z,46.00
2019-02-17T03:22:52.313Z,51.10
2019-02-17T03:25:22.160Z,55.33
2019-02-17T03:27:51.823Z,65.47
2019-02-17T03:30:23.418Z,55.60
2019-02-17T03:32:53.240Z,55.17
2019-02-17T03:35:23.140Z,51.92
2019-02-17T03:37:53.034Z,48.92
2019-02-17T03:40:22.932Z,58.28
2019-02-17T03:42:52.735Z,53.15
2019-02-17T03:45:22.392Z,47.45
2019-02-17T03:47:51.734Z,52.30
2019-02-17T03:50:21.343Z,62.38
2019-02-17T03:52:51.083Z,61.05
2019-02-17T03:55:20.627Z,51.02
2019-02-17T03:57:50.264Z,50.08
2019-02-17T04:00:18.837Z,52.13
2019-02-17T04:02:48.423Z,55.50
2019-02-17T04:05:17.822Z,52.50
2019-02-17T04:07:47.544Z,48.70
2019-02-17T04:10:16.097Z,55.03
2019-02-17T04:12:45.083Z,55.85
2019-02-17T04:15:14.143Z,55.83
2019-02-17T04:17:43.415Z,62.15
2019-02-17T04:20:12.370Z,67.62
2019-02-17T04:22:40.939Z,60.90
2019-02-17T04:25:09.819Z,68.33
2019-02-17T04:27:38.988Z,58.30
2019-02-17T04:30:07.619Z,70.83
2019-02-17T04:32:36.882Z,58.40
2019-02-17T04:35:06.281Z,61.20
2019-02-17T04:37:35.175Z,46.83
2019-02-17T04:40:04.091Z,49.88
2019-02-17T04:42:33.017Z,59.85
2019-02-17T04:45:01.592Z,58.10
2019-02-17T04:47:30.939Z,57.43
2019-02-17T04:49:59.524Z,62.35
2019-02-17T04:52:28.158Z,60.38
2019-02-17T04:54:57.103Z,58.95
2019-02-17T04:57:26.165Z,71.70
2019-02-17T04:59:54.734Z,54.13
2019-02-17T05:02:23.286Z,69.87
2019-02-17T05:04:51.879Z,68.17
2019-02-17T05:07:21.080Z,65.03
2019-02-17T05:09:50.307Z,61.68
2019-02-17T05:12:18.888Z,60.15
2019-02-17T05:14:47.824Z,56.75
2019-02-17T05:17:16.751Z,67.15
2019-02-17T05:19:45.313Z,69.32
2019-02-17T05:22:13.963Z,64.40
2019-02-17T05:24:42.937Z,61.33
2019-02-17T05:27:11.493Z,61.68
2019-02-17T05:29:40.124Z,55.85
2019-02-17T05:32:08.807Z,67.37
2019-02-17T05:34:37.801Z,55.80
2019-02-17T05:37:06.352Z,47.62
2019-02-17T05:39:35.651Z,45.90
2019-02-17T05:42:04.920Z,43.00
2019-02-17T05:44:33.475Z,55.55
2019-02-17T05:47:03.038Z,51.35
2019-02-17T05:49:32.696Z,56.15
2019-02-17T05:52:02.331Z,63.87
2019-02-17T05:54:31.664Z,62.30
2019-02-17T05:57:01.103Z,68.57
2019-02-17T05:59:30.507Z,58.00
2019-02-17T06:02:00.179Z,62.80
2019-02-17T06:04:29.661Z,59.80
2019-02-17T06:06:59.330Z,56.85
2019-02-17T06:09:29.011Z,56.18
2019-02-17T06:11:58.338Z,63.00
2019-02-17T06:14:28.057Z,65.25
2019-02-17T06:16:56.959Z,60.92
2019-02-17T06:19:26.351Z,57.93
2019-02-17T06:21:56.059Z,62.10
2019-02-17T06:24:25.508Z,57.00
2019-02-17T06:26:54.798Z,64.70
2019-02-17T06:29:24.182Z,61.45
2019-02-17T06:31:53.540Z,67.62
2019-02-17T06:34:22.432Z,74.65
2019-02-17T06:36:51.379Z,66.28
2019-02-17T06:39:21.668Z,72.27
2019-02-17T06:41:51.331Z,82.82
2019-02-17T06:44:20.702Z,65.85
2019-02-17T06:46:54.332Z,70.78
2019-02-17T06:49:23.846Z,80.95
2019-02-17T06:51:52.804Z,66.70
2019-02-17T06:54:22.536Z,79.05
2019-02-17T06:57:05.602Z,81.02
2019-02-17T06:59:35.271Z,70.20
2019-02-17T07:02:04.990Z,78.00
2019-02-17T07:04:56.122Z,73.85
2019-02-17T07:07:25.826Z,78.10
2019-02-17T07:09:55.803Z,88.97
2019-02-17T07:12:42.547Z,97.75
2019-02-17T07:15:11.632Z,89.80
2019-02-17T07:17:41.030Z,97.40
2019-02-17T07:20:10.756Z,145.17
2019-02-17T07:22:40.132Z,173.95
2019-02-17T07:25:09.462Z,135.75
2019-02-17T07:27:38.506Z,91.37
2019-02-17T07:30:08.261Z,80.03
2019-02-17T07:32:37.825Z,77.58
2019-02-17T07:35:06.957Z,58.25
2019-02-17T07:37:36.350Z,75.50
2019-02-17T07:40:06.039Z,72.00
2019-02-17T07:42:35.349Z,65.87
2019-02-17T07:45:04.754Z,66.97
2019-02-17T07:47:33.739Z,69.55
2019-02-17T07:50:02.745Z,86.17
2019-02-17T07:52:31.304Z,88.17
2019-02-17T07:55:00.370Z,81.28
2019-02-17T07:57:29.338Z,74.03
2019-02-17T07:59:58.721Z,74.87
2019-02-17T08:02:28.008Z,74.12
2019-02-17T08:04:57.058Z,56.63
2019-02-17T08:07:26.554Z,61.95
2019-02-17T08:09:56.233Z,64.53
2019-02-17T08:12:25.587Z,55.00
2019-02-17T08:14:54.549Z,53.08
2019-02-17T08:17:24.299Z,53.10
2019-02-17T08:19:53.504Z,54.95
2019-02-17T08:22:22.398Z,63.73
2019-02-17T08:24:51.345Z,53.45
2019-02-17T08:27:19.910Z,56.53
2019-02-17T08:29:48.487Z,64.82
2019-02-17T08:32:17.433Z,55.83
2019-02-17T08:34:45.983Z,56.30
2019-02-17T08:37:14.919Z,50.00
2019-02-17T08:39:43.507Z,47.38
2019-02-17T08:42:12.054Z,53.63
2019-02-17T08:44:40.610Z,47.35
2019-02-17T08:47:09.269Z,47.43
2019-02-17T08:49:37.852Z,49.93
2019-02-17T08:52:07.122Z,53.13
2019-02-17T08:54:35.706Z,56.23
2019-02-17T08:57:04.744Z,51.00
2019-02-17T08:59:34.491Z,53.60
2019-02-17T09:02:05.941Z,56.42
2019-02-17T09:04:34.789Z,54.38
2019-02-17T09:07:03.671Z,54.70
2019-02-17T09:09:33.290Z,46.75
2019-02-17T09:12:02.481Z,46.37
2019-02-17T09:14:32.066Z,55.20
2019-02-17T09:17:01.355Z,47.45
2019-02-17T09:19:31.080Z,40.43
2019-02-17T09:22:02.802Z,44.40
2019-02-17T09:24:32.133Z,50.28
2019-02-17T09:27:00.804Z,39.42
2019-02-17T09:29:30.432Z,44.10
2019-02-17T09:31:59.533Z,46.53
2019-02-17T09:34:28.171Z,40.92
2019-02-17T09:36:57.479Z,41.58
2019-02-17T09:39:26.371Z,44.80
2019-02-17T09:41:54.923Z,31.45
2019-02-17T09:44:23.489Z,40.98
2019-02-17T09:46:52.079Z,35.28
2019-02-17T09:49:21.359Z,39.23
2019-02-17T09:51:50.365Z,35.68
2019-02-17T09:54:18.968Z,30.77
2019-02-17T09:56:47.574Z,34.70
2019-02-17T09:59:16.149Z,35.65
2019-02-17T10:01:44.706Z,36.95
2019-02-17T10:04:13.309Z,35.50
2019-02-17T10:06:41.868Z,33.58
2019-02-17T10:09:10.426Z,31.77
2019-02-17T10:11:39.022Z,31.07
2019-02-17T10:14:07.577Z,27.87
2019-02-17T10:16:36.134Z,30.32
2019-02-17T10:19:04.722Z,33.53
2019-02-17T10:21:33.355Z,31.73
2019-02-17T10:24:01.914Z,30.48
2019-02-17T10:26:30.481Z,30.32
2019-02-17T10:28:59.082Z,26.60
2019-02-17T10:31:27.635Z,28.20
2019-02-17T10:33:56.215Z,28.38
2019-02-17T10:36:24.842Z,25.95
2019-02-17T10:38:53.399Z,28.35
2019-02-17T10:41:22.285Z,26.55
2019-02-17T10:43:50.886Z,28.73
2019-02-17T10:46:19.440Z,26.10
2019-02-17T10:48:48.002Z,26.50
2019-02-17T10:51:16.586Z,28.92
2019-02-17T10:53:45.510Z,24.12
2019-02-17T10:56:14.092Z,28.12
2019-02-17T10:58:42.683Z,27.80
2019-02-17T11:01:11.251Z,27.02
2019-02-17T11:03:39.866Z,26.40
2019-02-17T11:06:08.433Z,30.05
2019-02-17T11:08:37.000Z,29.27
2019-02-17T11:11:05.604Z,26.77
2019-02-17T11:13:34.174Z,26.42
2019-02-17T11:16:02.761Z,29.18
2019-02-17T11:18:31.369Z,26.45
2019-02-17T11:21:00.347Z,27.30
2019-02-17T11:23:28.957Z,26.15
2019-02-17T11:25:58.277Z,28.38
2019-02-17T11:28:27.681Z,27.80
2019-02-17T11:30:57.087Z,27.10
2019-02-17T11:33:26.738Z,28.20
2019-02-17T11:35:56.032Z,26.10
2019-02-17T11:38:25.711Z,26.70
2019-02-17T11:40:54.378Z,26.40
2019-02-17T11:43:23.618Z,26.33
2019-02-17T11:45:53.310Z,26.75
2019-02-17T11:48:23.052Z,29.30
2019-02-17T11:50:52.352Z,26.40
2019-02-17T11:53:21.717Z,24.30
2019-02-17T11:55:52.291Z,28.07
2019-02-17T11:58:21.869Z,28.65
2019-02-17T12:00:51.199Z,24.70
2019-02-17T12:03:20.825Z,27.67
2019-02-17T12:05:50.065Z,24.65
2019-02-17T12:08:19.476Z,26.02
2019-02-17T12:10:48.774Z,23.52
2019-02-17T12:13:18.528Z,24.43
2019-02-17T12:15:48.022Z,25.97
2019-02-17T12:18:17.221Z,26.35
2019-02-17T12:20:57.551Z,24.67
2019-02-17T12:23:41.901Z,24.47
2019-02-17T12:26:27.508Z,23.20
2019-02-17T12:29:19.621Z,22.37
2019-02-17T12:31:48.581Z,26.73
2019-02-17T12:34:17.644Z,23.95
2019-02-17T12:36:47.167Z,22.95
2019-02-17T12:39:15.764Z,21.95
2019-02-17T12:41:44.637Z,24.92
2019-02-17T12:44:13.595Z,24.98
2019-02-17T12:46:43.344Z,25.12
2019-02-17T12:49:13.018Z,24.98
2019-02-17T12:51:42.388Z,25.92
2019-02-17T12:54:11.368Z,26.70
2019-02-17T12:56:40.327Z,24.12
2019-02-17T12:59:09.576Z,23.98
2019-02-17T13:01:38.567Z,22.85
2019-02-17T13:04:07.839Z,26.65
2019-02-17T13:06:36.396Z,26.52
2019-02-17T13:09:06.955Z,23.45
2019-02-17T13:11:35.519Z,25.25
2019-02-17T13:14:04.097Z,21.87
2019-02-17T13:16:32.651Z,22.27
2019-02-17T13:19:01.241Z,22.60
2019-02-17T13:21:29.857Z,23.10
2019-02-17T13:23:58.441Z,24.72
2019-02-17T13:26:26.992Z,23.35
2019-02-17T13:28:55.644Z,21.57
2019-02-17T13:31:24.236Z,22.95
2019-02-17T13:33:52.795Z,26.97
2019-02-17T13:36:21.356Z,21.10
2019-02-17T13:38:49.940Z,23.02
2019-02-17T13:41:18.497Z,21.45
2019-02-17T13:43:47.051Z,22.82
2019-02-17T13:46:16.111Z,23.15
2019-02-17T13:48:44.744Z,21.75
2019-02-17T13:51:13.294Z,23.10
2019-02-17T13:53:41.883Z,20.25
2019-02-17T13:56:10.437Z,21.00
2019-02-17T13:58:39.023Z,25.77
2019-02-17T14:01:07.601Z,27.40
2019-02-17T14:03:36.161Z,26.40
2019-02-17T14:06:04.749Z,22.55
2019-02-17T14:08:33.304Z,22.15
2019-02-17T14:11:01.901Z,22.42
2019-02-17T14:13:30.485Z,23.42
2019-02-17T14:15:59.069Z,19.65
2019-02-17T14:18:27.985Z,21.70
2019-02-17T14:20:56.572Z,23.92
2019-02-17T14:23:25.157Z,20.37
2019-02-17T14:25:53.747Z,20.05
2019-02-17T14:28:22.300Z,19.17
2019-02-17T14:30:51.192Z,22.52
2019-02-17T14:33:19.787Z,24.70
2019-02-17T14:35:48.644Z,19.85
2019-02-17T14:38:17.202Z,22.13
2019-02-17T14:40:45.870Z,22.37
2019-02-17T14:43:14.730Z,25.00
2019-02-17T14:45:43.616Z,18.42
2019-02-17T14:48:12.209Z,20.88
2019-02-17T14:50:40.791Z,21.82
2019-02-17T14:53:09.347Z,20.62
2019-02-17T14:55:38.080Z,22.37
2019-02-17T14:58:06.646Z,22.32
2019-02-17T15:00:35.545Z,22.42
2019-02-17T15:03:05.143Z,21.52
2019-02-17T15:05:34.527Z,24.27
2019-02-17T15:08:03.755Z,20.75
2019-02-17T15:10:33.399Z,22.58
2019-02-17T15:13:03.030Z,19.27
2019-02-17T15:15:32.452Z,23.52
2019-02-17T15:18:01.752Z,21.65
2019-02-17T15:20:30.686Z,21.27
2019-02-17T15:22:59.660Z,20.45
2019-02-17T15:25:29.010Z,19.92
2019-02-17T15:27:58.719Z,18.17
2019-02-17T15:30:28.354Z,21.10
2019-02-17T15:33:03.935Z,19.35
2019-02-17T15:35:29.005Z,17.90
2019-02-17T15:37:57.994Z,22.25
2019-02-17T15:40:27.614Z,21.15
2019-02-17T15:42:56.873Z,21.95
2019-02-17T15:45:25.503Z,22.90
2019-02-17T15:47:55.104Z,21.82
2019-02-17T15:50:24.802Z,24.47
2019-02-17T15:52:54.398Z,26.33
2019-02-17T15:55:25.609Z,20.27
2019-02-17T15:57:54.604Z,22.20
2019-02-17T16:00:23.871Z,20.05
2019-02-17T16:02:53.537Z,18.35
2019-02-17T16:05:23.307Z,15.55
2019-02-17T16:07:52.962Z,16.50
2019-02-17T16:10:22.674Z,16.15
2019-02-17T16:12:52.005Z,16.65
2019-02-17T16:15:21.731Z,18.75
2019-02-17T16:17:51.088Z,19.20
2019-02-17T16:20:20.819Z,18.80
2019-02-17T16:22:49.783Z,19.52
2019-02-17T16:25:19.093Z,20.45
2019-02-17T16:27:48.841Z,18.90
2019-02-17T16:30:18.522Z,20.72
2019-02-17T16:32:48.226Z,17.52
2019-02-17T16:35:17.985Z,24.40
2019-02-17T16:37:47.653Z,22.82
2019-02-17T16:40:17.375Z,21.45
2019-02-17T16:42:47.115Z,23.32
2019-02-17T16:45:16.792Z,19.62
2019-02-17T16:47:46.888Z,21.20
2019-02-17T16:50:18.172Z,23.00
2019-02-17T16:52:46.735Z,27.15
2019-02-17T16:55:15.301Z,21.15
2019-02-17T16:57:44.749Z,22.40
2019-02-17T17:00:18.746Z,28.57
2019-02-17T17:02:48.495Z,33.02
2019-02-17T17:05:17.857Z,26.25
2019-02-17T17:07:47.271Z,23.60
2019-02-17T17:10:16.998Z,22.48
2019-02-17T17:12:46.821Z,26.02
2019-02-17T17:15:16.594Z,24.23
2019-02-17T17:17:46.306Z,28.27
2019-02-17T17:20:16.086Z,33.90
2019-02-17T17:22:45.731Z,26.40
2019-02-17T17:25:15.437Z,28.00
2019-02-17T17:27:44.701Z,26.55
2019-02-17T17:30:14.565Z,28.12
2019-02-17T17:32:44.262Z,25.88
2019-02-17T17:35:14.026Z,29.57
2019-02-17T17:37:43.686Z,26.73
2019-02-17T17:40:13.415Z,26.33
2019-02-17T17:42:42.457Z,29.82
2019-02-17T17:45:13.225Z,24.80
2019-02-17T17:47:42.248Z,27.40
2019-02-17T17:50:13.098Z,28.38
2019-02-17T17:52:42.768Z,30.57
2019-02-17T17:55:12.440Z,28.07
2019-02-17T17:57:42.033Z,24.67
2019-02-17T18:00:13.738Z,30.37
2019-02-17T18:02:43.358Z,29.95
2019-02-17T18:05:13.108Z,27.62
2019-02-17T18:07:43.244Z,22.42
2019-02-17T18:10:14.156Z,27.52
2019-02-17T18:12:43.709Z,26.33
2019-02-17T18:15:13.488Z,23.83
2019-02-17T18:17:53.456Z,24.70
2019-02-17T18:20:14.958Z,23.80
2019-02-17T18:22:44.686Z,33.28
2019-02-17T18:25:14.033Z,26.40
2019-02-17T18:27:43.746Z,25.23
2019-02-17T18:30:16.376Z,31.25
2019-02-17T18:32:45.740Z,25.90
2019-02-17T18:35:19.786Z,22.93
2019-02-17T18:37:46.519Z,24.98
2019-02-17T18:40:16.117Z,22.22
2019-02-17T18:42:45.852Z,23.62
2019-02-17T18:45:15.132Z,26.02
2019-02-17T18:47:43.677Z,20.52
2019-02-17T18:50:12.926Z,28.67
2019-02-17T18:52:41.478Z,24.55
2019-02-17T18:55:11.815Z,23.90
2019-02-17T18:57:49.636Z,24.37
2019-02-17T19:00:13.235Z,24.27
2019-02-17T19:02:41.864Z,23.47
2019-02-17T19:05:11.143Z,24.65
2019-02-17T19:07:39.730Z,27.32
2019-02-17T19:10:09.883Z,25.55
2019-02-17T19:12:38.457Z,24.47
2019-02-17T19:15:08.117Z,26.05
2019-02-17T19:17:36.679Z,30.35
2019-02-17T19:20:06.378Z,28.32
2019-02-17T19:22:34.957Z,30.80
2019-02-17T19:25:03.577Z,26.70
2019-02-17T19:27:32.151Z,27.25
2019-02-17T19:30:00.741Z,40.45
2019-02-17T19:32:29.297Z,46.90
2019-02-17T19:34:57.846Z,30.95
2019-02-17T19:37:26.433Z,30.37
2019-02-17T19:39:54.990Z,22.98
2019-02-17T19:42:23.551Z,24.35
2019-02-17T19:44:52.146Z,25.80
2019-02-17T19:47:20.697Z,24.15
2019-02-17T19:49:49.264Z,23.38
2019-02-17T19:52:17.848Z,24.07
2019-02-17T19:54:46.400Z,24.25
2019-02-17T19:57:14.982Z,24.10
2019-02-17T19:59:43.574Z,27.52
2019-02-17T20:02:12.258Z,29.05
2019-02-17T20:04:59.829Z,25.85
2019-02-17T20:07:28.410Z,24.55
2019-02-17T20:09:56.964Z,24.10
2019-02-17T20:12:25.564Z,25.65
2019-02-17T20:14:54.414Z,27.25
2019-02-17T20:17:23.034Z,27.17
2019-02-17T20:19:51.620Z,26.42
2019-02-17T20:22:20.253Z,24.25
2019-02-17T20:24:48.826Z,25.45
2019-02-17T20:27:17.429Z,25.17
2019-02-17T20:29:45.990Z,30.60
2019-02-17T20:32:14.550Z,29.92
2019-02-17T20:34:43.149Z,25.80
2019-02-17T20:37:11.703Z,26.68
2019-02-17T20:39:41.337Z,29.25
2019-02-17T20:42:10.029Z,27.70
2019-02-17T20:44:38.874Z,28.85
2019-02-17T20:47:07.434Z,25.43
2019-02-17T20:49:36.414Z,24.40
2019-02-17T20:52:05.762Z,24.85
2019-02-17T20:54:35.303Z,28.90
2019-02-17T20:57:05.284Z,28.20
2019-02-17T20:59:34.364Z,31.80
2019-02-17T21:02:04.026Z,26.07
2019-02-17T21:04:33.734Z,26.60
2019-02-17T21:07:03.477Z,30.30
2019-02-17T21:09:33.281Z,28.17
2019-02-17T21:12:02.667Z,27.80
2019-02-17T21:14:32.461Z,30.32
2019-02-17T21:17:01.901Z,27.55
2019-02-17T21:19:31.489Z,32.42
2019-02-17T21:22:00.847Z,31.40
2019-02-17T21:24:30.510Z,32.70
2019-02-17T21:27:00.137Z,34.85
2019-02-17T21:29:29.518Z,30.80
2019-02-17T21:31:58.806Z,29.63
2019-02-17T21:34:28.074Z,29.35
2019-02-17T21:36:57.648Z,36.60
2019-02-17T21:39:27.051Z,29.20
2019-02-17T21:41:57.441Z,29.52
2019-02-17T21:44:27.209Z,29.23
2019-02-17T21:46:56.564Z,26.15
2019-02-17T21:49:25.779Z,32.25
2019-02-17T21:51:55.207Z,31.62
2019-02-17T21:54:24.570Z,29.48
2019-02-17T21:56:53.835Z,27.82
2019-02-17T21:59:22.824Z,28.60
2019-02-17T22:01:51.800Z,29.80
2019-02-17T22:04:20.421Z,32.75
2019-02-17T22:06:49.788Z,26.77
2019-02-17T22:09:18.780Z,28.47
2019-02-17T22:11:48.177Z,32.20
2019-02-17T22:14:17.858Z,27.80
2019-02-17T22:16:47.761Z,33.08
2019-02-17T22:19:17.214Z,22.42
2019-02-17T22:21:47.079Z,30.05
2019-02-17T22:24:16.817Z,34.50
2019-02-17T22:26:46.097Z,23.67
2019-02-17T22:29:15.818Z,28.40
2019-02-17T22:31:45.529Z,29.95
2019-02-17T22:34:15.282Z,41.18
2019-02-17T22:36:44.948Z,31.77
2019-02-17T22:39:14.392Z,33.05
2019-02-17T22:41:43.760Z,32.42
2019-02-17T22:44:13.365Z,28.75
2019-02-17T22:46:43.101Z,27.85
2019-02-17T22:49:12.825Z,36.03
2019-02-17T22:51:42.333Z,27.00
2019-02-17T22:54:11.857Z,24.43
2019-02-17T22:56:41.536Z,30.80
2019-02-17T22:59:11.161Z,31.40
2019-02-17T23:01:41.011Z,25.35
2019-02-17T23:04:10.571Z,28.35
2019-02-17T23:06:40.199Z,32.83
2019-02-17T23:09:09.865Z,28.47
2019-02-17T23:11:39.469Z,35.98
2019-02-17T23:14:08.922Z,30.75
2019-02-17T23:16:38.137Z,48.45
2019-02-17T23:19:07.782Z,35.03
2019-02-17T23:21:37.455Z,36.63
2019-02-17T23:24:07.101Z,30.95
2019-02-17T23:26:36.815Z,36.50
2019-02-17T23:29:06.564Z,30.17
2019-02-17T23:31:36.145Z,31.90
2019-02-17T23:34:06.028Z,27.82
2019-02-17T23:36:35.373Z,28.83
2019-02-17T23:39:05.837Z,29.57
2019-02-17T23:41:34.802Z,29.55
2019-02-17T23:44:04.582Z,30.30
2019-02-17T23:46:33.925Z,30.72
2019-02-17T23:49:03.227Z,31.48
2019-02-17T23:51:33.088Z,29.82
2019-02-17T23:54:02.738Z,29.60
2019-02-17T23:56:32.965Z,29.50
2019-02-17T23:59:02.549Z,27.15
